Terminal Aerodrome Forecast
Issued by NWS

Current Version | Previous Version | Graphics & Text | Print | Product List | Glossary Off
Versions: 1 2 3 4 5 6 7 8 9 10 11 12 13 14 15 16 17 18 19 20 21 22 23 24

000
FTUS41 KILN 302339
TAFLCK
TAF
KLCK 302339Z 0100/0124 18010KT P6SM SCT210
     FM010600 18013G18KT P6SM VCSH OVC100 WS020/18040KT
     FM010900 19013G18KT 3SM -TSRA OVC045CB
     FM011300 20014G22KT P6SM OVC050
     FM011800 21020G29KT P6SM SCT050=

USA.gov is the U.S. government's official web portal to all federal, state and local government web resources and services.